createdAt,value
2019-03-15T00:01:39.764Z,74.61
2019-03-15T00:04:07.991Z,74.42
2019-03-15T00:06:36.199Z,74.24
2019-03-15T00:09:07.677Z,73.66
2019-03-15T00:11:35.917Z,72.77
2019-03-15T00:14:04.185Z,73.68
2019-03-15T00:16:32.404Z,72.60
2019-03-15T00:19:00.612Z,72.47
2019-03-15T00:21:28.854Z,72.93
2019-03-15T00:23:57.062Z,72.61
2019-03-15T00:26:25.272Z,72.12
2019-03-15T00:28:53.478Z,72.70
2019-03-15T00:31:21.684Z,72.25
2019-03-15T00:33:50.673Z,71.99
2019-03-15T00:36:18.878Z,72.29
2019-03-15T00:38:47.109Z,71.60
2019-03-15T00:41:15.317Z,71.26
2019-03-15T00:43:43.540Z,71.56
2019-03-15T00:46:11.742Z,71.52
2019-03-15T00:48:39.959Z,71.18
2019-03-15T00:51:08.195Z,71.17
2019-03-15T00:53:36.404Z,71.55
2019-03-15T00:56:04.618Z,72.29
2019-03-15T00:58:32.826Z,72.41
2019-03-15T01:01:01.030Z,73.40
2019-03-15T01:03:29.238Z,73.45
2019-03-15T01:05:57.546Z,73.60
2019-03-15T01:08:25.775Z,74.02
2019-03-15T01:10:53.976Z,73.96
2019-03-15T01:13:22.191Z,73.84
2019-03-15T01:15:50.411Z,73.90
2019-03-15T01:18:18.650Z,74.28
2019-03-15T01:20:46.832Z,73.68
2019-03-15T01:23:15.042Z,72.84
2019-03-15T01:25:43.292Z,72.84
2019-03-15T01:28:11.494Z,73.17
2019-03-15T01:30:39.705Z,72.96
2019-03-15T01:33:07.921Z,73.35
2019-03-15T01:35:36.125Z,73.00
2019-03-15T01:38:04.358Z,73.16
2019-03-15T01:40:32.564Z,73.06
2019-03-15T01:43:00.804Z,72.81
2019-03-15T01:45:29.003Z,72.74
2019-03-15T01:47:57.203Z,72.46
2019-03-15T01:50:25.422Z,72.35
2019-03-15T01:52:53.631Z,72.20
2019-03-15T01:55:21.862Z,72.47
2019-03-15T01:57:50.069Z,72.11
2019-03-15T02:00:18.293Z,72.99
2019-03-15T02:02:46.964Z,72.69
2019-03-15T02:05:15.172Z,72.72
2019-03-15T02:07:43.397Z,72.74
2019-03-15T02:10:11.599Z,72.97
2019-03-15T02:12:39.827Z,73.14
2019-03-15T02:15:10.713Z,73.33
2019-03-15T02:17:39.077Z,72.95
2019-03-15T02:20:08.351Z,73.72
2019-03-15T02:22:36.558Z,73.92
2019-03-15T02:25:05.134Z,74.21
2019-03-15T02:27:33.347Z,74.12
2019-03-15T02:30:01.562Z,74.20
2019-03-15T02:32:29.778Z,74.34
2019-03-15T02:34:57.991Z,74.49
2019-03-15T02:37:26.191Z,74.70
2019-03-15T02:39:54.432Z,74.42
2019-03-15T02:42:22.658Z,74.80
2019-03-15T02:44:50.850Z,74.33
2019-03-15T02:47:19.641Z,74.30
2019-03-15T02:49:48.347Z,75.57
2019-03-15T02:52:17.125Z,75.70
2019-03-15T02:54:45.350Z,75.86
2019-03-15T02:57:13.565Z,75.85
2019-03-15T02:59:41.808Z,75.66
2019-03-15T03:02:10.067Z,75.49
2019-03-15T03:04:38.362Z,75.67
2019-03-15T03:07:06.597Z,75.44
2019-03-15T03:09:34.813Z,75.37
2019-03-15T03:12:03.030Z,75.40
2019-03-15T03:14:31.250Z,75.25
2019-03-15T03:16:59.472Z,74.55
2019-03-15T03:19:28.218Z,74.69
2019-03-15T03:21:56.580Z,74.10
2019-03-15T03:24:24.878Z,74.28
2019-03-15T03:26:53.080Z,74.47
2019-03-15T03:29:21.819Z,74.12
2019-03-15T03:31:50.497Z,73.94
2019-03-15T03:34:18.686Z,73.82
2019-03-15T03:36:47.386Z,73.96
2019-03-15T03:39:15.600Z,73.62
2019-03-15T03:41:43.804Z,73.59
2019-03-15T03:44:12.062Z,73.84
2019-03-15T03:46:40.270Z,73.78
2019-03-15T03:49:08.507Z,73.78
2019-03-15T03:51:36.717Z,73.99
2019-03-15T03:54:05.038Z,73.97
2019-03-15T03:56:33.238Z,74.19
2019-03-15T03:59:01.466Z,74.52
2019-03-15T04:01:29.712Z,73.89
2019-03-15T04:03:57.951Z,74.05
2019-03-15T04:06:26.359Z,73.84
2019-03-15T04:08:54.570Z,73.90
2019-03-15T04:11:22.792Z,73.93
2019-03-15T04:13:51.044Z,74.14
2019-03-15T04:16:19.240Z,74.17
2019-03-15T04:18:47.539Z,74.42
2019-03-15T04:21:15.759Z,74.31
2019-03-15T04:23:44.001Z,74.36
2019-03-15T04:26:12.217Z,74.37
2019-03-15T04:28:40.430Z,74.26
2019-03-15T04:31:08.639Z,74.15
2019-03-15T04:33:36.917Z,74.25
2019-03-15T04:36:05.086Z,74.54
2019-03-15T04:38:33.290Z,74.85
2019-03-15T04:41:01.511Z,75.23
2019-03-15T04:43:29.723Z,75.92
2019-03-15T04:45:57.944Z,76.17
2019-03-15T04:48:26.162Z,76.46
2019-03-15T04:50:54.376Z,76.33
2019-03-15T04:53:22.594Z,76.65
2019-03-15T04:55:50.802Z,76.47
2019-03-15T04:58:19.003Z,76.42
2019-03-15T05:00:47.660Z,76.13
2019-03-15T05:03:15.867Z,75.90
2019-03-15T05:05:44.102Z,75.74
2019-03-15T05:08:12.310Z,75.64
2019-03-15T05:10:40.532Z,75.67
2019-03-15T05:13:08.758Z,75.47
2019-03-15T05:15:36.960Z,75.19
2019-03-15T05:18:05.170Z,75.37
2019-03-15T05:20:33.403Z,75.30
2019-03-15T05:23:01.608Z,75.47
2019-03-15T05:25:30.133Z,75.34
2019-03-15T05:27:58.599Z,75.47
2019-03-15T05:30:26.804Z,75.53
2019-03-15T05:32:55.028Z,75.20
2019-03-15T05:35:23.246Z,75.16
2019-03-15T05:37:51.451Z,74.89
2019-03-15T05:40:19.686Z,75.03
2019-03-15T05:42:47.931Z,75.06
2019-03-15T05:45:16.136Z,75.14
2019-03-15T05:47:44.374Z,75.23
2019-03-15T05:50:12.932Z,75.33
2019-03-15T05:52:41.141Z,75.07
2019-03-15T05:55:14.067Z,75.04
2019-03-15T05:57:42.266Z,75.15
2019-03-15T06:00:15.416Z,75.01
2019-03-15T06:02:43.634Z,75.08
2019-03-15T06:05:11.847Z,74.79
2019-03-15T06:07:40.091Z,74.82
2019-03-15T06:10:13.229Z,74.78
2019-03-15T06:12:41.447Z,74.71
2019-03-15T06:15:10.927Z,74.64
2019-03-15T06:17:39.144Z,74.66
2019-03-15T06:20:13.656Z,74.36
2019-03-15T06:22:41.877Z,74.25
2019-03-15T06:25:11.144Z,74.22
2019-03-15T06:27:39.372Z,74.22
2019-03-15T06:30:13.156Z,74.37
2019-03-15T06:32:41.377Z,74.07
2019-03-15T06:35:09.602Z,73.64
2019-03-15T06:37:37.862Z,74.05
2019-03-15T06:40:08.420Z,74.13
2019-03-15T06:42:36.651Z,74.25
2019-03-15T06:45:13.224Z,73.85
2019-03-15T06:47:43.145Z,73.65
2019-03-15T06:50:11.375Z,73.59
2019-03-15T06:52:39.587Z,73.50
2019-03-15T06:55:08.530Z,73.95
2019-03-15T06:57:36.758Z,73.90
2019-03-15T07:00:08.169Z,73.95
2019-03-15T07:02:36.386Z,73.34
2019-03-15T07:05:06.345Z,73.30
2019-03-15T07:07:34.683Z,73.44
2019-03-15T07:10:02.972Z,73.11
2019-03-15T07:12:31.193Z,72.96
2019-03-15T07:14:59.412Z,73.16
2019-03-15T07:17:27.667Z,72.89
2019-03-15T07:19:55.844Z,72.94
2019-03-15T07:22:24.075Z,73.13
2019-03-15T07:24:52.297Z,72.76
2019-03-15T07:27:20.510Z,72.89
2019-03-15T07:29:48.725Z,72.58
2019-03-15T07:32:16.932Z,72.92
2019-03-15T07:34:45.158Z,72.69
2019-03-15T07:37:13.373Z,72.02
2019-03-15T07:39:41.629Z,71.96
2019-03-15T07:42:09.847Z,72.11
2019-03-15T07:44:38.098Z,71.87
2019-03-15T07:47:06.302Z,72.12
2019-03-15T07:49:34.586Z,71.92
2019-03-15T07:52:03.916Z,71.28
2019-03-15T07:54:37.977Z,71.23
2019-03-15T07:57:02.282Z,71.60
2019-03-15T07:59:30.522Z,70.97
2019-03-15T08:01:58.749Z,71.76
2019-03-15T08:04:26.953Z,71.80
2019-03-15T08:06:55.170Z,70.95
2019-03-15T08:09:23.394Z,71.29
2019-03-15T08:11:51.601Z,70.80
2019-03-15T08:14:19.825Z,70.31
2019-03-15T08:16:48.895Z,70.89
2019-03-15T08:19:17.109Z,72.36
2019-03-15T08:21:45.324Z,70.44
2019-03-15T08:24:13.538Z,70.48
2019-03-15T08:26:41.878Z,70.82
2019-03-15T08:29:10.218Z,70.40
2019-03-15T08:31:38.376Z,70.28
2019-03-15T08:34:06.596Z,70.50
2019-03-15T08:36:34.824Z,69.93
2019-03-15T08:39:03.410Z,69.89
2019-03-15T08:41:31.611Z,69.74
2019-03-15T08:43:59.865Z,70.08
2019-03-15T08:46:28.135Z,70.66
2019-03-15T08:48:56.352Z,69.81
2019-03-15T08:51:24.571Z,69.43
2019-03-15T08:53:52.779Z,69.37
2019-03-15T08:56:20.989Z,68.23
2019-03-15T08:58:49.195Z,69.05
2019-03-15T09:01:17.510Z,68.19
2019-03-15T09:03:45.822Z,68.76
2019-03-15T09:06:14.037Z,68.24
2019-03-15T09:08:42.256Z,67.89
2019-03-15T09:11:10.465Z,67.95
2019-03-15T09:13:38.681Z,68.68
2019-03-15T09:16:06.897Z,68.32
2019-03-15T09:18:35.103Z,68.60
2019-03-15T09:21:03.317Z,68.23
2019-03-15T09:23:31.527Z,68.11
2019-03-15T09:25:59.773Z,67.83
2019-03-15T09:28:27.974Z,67.55
2019-03-15T09:30:56.199Z,68.37
2019-03-15T09:33:24.439Z,66.64
2019-03-15T09:35:52.661Z,66.28
2019-03-15T09:38:20.878Z,66.50
2019-03-15T09:40:49.493Z,66.00
2019-03-15T09:43:17.717Z,66.25
2019-03-15T09:45:45.930Z,65.51
2019-03-15T09:48:14.167Z,66.20
2019-03-15T09:50:51.024Z,65.44
2019-03-15T09:53:12.314Z,66.30
2019-03-15T09:55:40.529Z,65.81
2019-03-15T09:58:08.736Z,65.08
2019-03-15T10:00:37.007Z,65.78
2019-03-15T10:03:05.196Z,65.78
2019-03-15T10:05:33.400Z,67.04
2019-03-15T10:08:01.609Z,66.31
2019-03-15T10:10:29.824Z,66.40
2019-03-15T10:13:05.955Z,66.83
2019-03-15T10:15:27.987Z,65.29
2019-03-15T10:17:56.191Z,66.57
2019-03-15T10:20:24.408Z,66.75
2019-03-15T10:23:05.567Z,66.09
2019-03-15T10:25:22.580Z,66.87
2019-03-15T10:27:50.788Z,67.80
2019-03-15T10:30:20.942Z,66.50
2019-03-15T10:32:49.898Z,66.57
2019-03-15T10:35:18.200Z,68.18
2019-03-15T10:37:46.406Z,66.46
2019-03-15T10:40:19.784Z,66.80
2019-03-15T10:42:48.032Z,68.23
2019-03-15T10:45:16.242Z,66.57
2019-03-15T10:47:44.454Z,68.74
2019-03-15T10:50:14.407Z,68.91
2019-03-15T10:52:42.627Z,69.49
2019-03-15T10:55:10.906Z,70.27
2019-03-15T10:57:39.112Z,70.10
2019-03-15T11:00:18.027Z,69.04
2019-03-15T11:02:46.255Z,69.04
2019-03-15T11:05:14.465Z,69.92
2019-03-15T11:07:42.692Z,70.71
2019-03-15T11:10:11.675Z,70.15
2019-03-15T11:12:39.875Z,71.54
2019-03-15T11:15:10.431Z,70.61
2019-03-15T11:17:38.757Z,71.97
2019-03-15T11:20:09.090Z,73.58
2019-03-15T11:22:37.354Z,72.50
2019-03-15T11:25:07.380Z,73.79
2019-03-15T11:27:35.676Z,74.03
2019-03-15T11:30:05.090Z,74.27
2019-03-15T11:32:33.304Z,75.10
2019-03-15T11:35:01.638Z,75.18
2019-03-15T11:37:29.857Z,76.23
2019-03-15T11:39:58.096Z,76.89
2019-03-15T11:42:26.317Z,77.12
2019-03-15T11:44:54.522Z,77.59
2019-03-15T11:47:22.747Z,77.76
2019-03-15T11:49:50.961Z,77.86
2019-03-15T11:52:19.176Z,79.02
2019-03-15T11:54:49.854Z,79.09
2019-03-15T11:57:17.346Z,78.52
2019-03-15T11:59:45.704Z,79.13
2019-03-15T12:02:14.077Z,78.83
2019-03-15T12:04:42.300Z,79.11
2019-03-15T12:07:10.691Z,79.49
2019-03-15T12:09:40.958Z,79.37
2019-03-15T12:12:08.889Z,79.32
2019-03-15T12:14:41.244Z,79.58
2019-03-15T12:17:07.045Z,79.47
2019-03-15T12:19:35.301Z,79.86
2019-03-15T12:22:06.565Z,80.34
2019-03-15T12:24:33.449Z,80.37
2019-03-15T12:27:01.664Z,80.63
2019-03-15T12:29:29.899Z,80.26
2019-03-15T12:31:58.122Z,80.46
2019-03-15T12:34:26.326Z,80.37
2019-03-15T12:36:54.533Z,80.32
2019-03-15T12:39:22.747Z,80.37
2019-03-15T12:41:50.954Z,80.31
2019-03-15T12:44:19.163Z,80.60
2019-03-15T12:46:47.454Z,80.59
2019-03-15T12:49:15.686Z,80.53
2019-03-15T12:51:43.885Z,80.71
2019-03-15T12:54:12.097Z,80.21
2019-03-15T12:56:52.863Z,80.61
2019-03-15T12:59:10.249Z,80.72
2019-03-15T13:01:38.537Z,79.80
2019-03-15T13:04:06.687Z,79.96
2019-03-15T13:06:34.932Z,80.18
2019-03-15T13:09:03.643Z,80.33
2019-03-15T13:11:31.864Z,79.75
2019-03-15T13:14:00.081Z,79.97
2019-03-15T13:16:28.356Z,80.37
2019-03-15T13:18:56.575Z,80.25
2019-03-15T13:21:24.855Z,80.05
2019-03-15T13:23:53.071Z,79.83
2019-03-15T13:26:21.281Z,79.42
2019-03-15T13:28:49.489Z,79.43
2019-03-15T13:31:17.724Z,79.20
2019-03-15T13:33:45.937Z,78.76
2019-03-15T13:36:14.208Z,77.64
2019-03-15T13:38:42.428Z,77.03
2019-03-15T13:41:10.644Z,76.73
2019-03-15T13:43:38.861Z,76.09
2019-03-15T13:46:07.080Z,74.63
2019-03-15T13:48:35.289Z,74.49
2019-03-15T13:51:03.509Z,72.92
2019-03-15T13:53:31.729Z,72.99
2019-03-15T13:55:59.949Z,72.54
2019-03-15T13:58:28.161Z,70.67
2019-03-15T14:00:56.376Z,69.20
2019-03-15T14:03:24.599Z,68.77
2019-03-15T14:05:52.821Z,66.14
2019-03-15T14:08:21.142Z,64.73
2019-03-15T14:10:49.949Z,65.51
2019-03-15T14:13:18.147Z,63.83
2019-03-15T14:15:46.363Z,63.78
2019-03-15T14:18:14.608Z,61.30
2019-03-15T14:20:42.814Z,61.52
2019-03-15T14:23:11.041Z,60.90
2019-03-15T14:25:39.279Z,61.31
2019-03-15T14:28:07.510Z,60.27
2019-03-15T14:30:36.584Z,58.28
2019-03-15T14:33:04.802Z,59.12
2019-03-15T14:35:33.019Z,56.84
2019-03-15T14:38:01.540Z,55.30
2019-03-15T14:40:29.915Z,56.42
2019-03-15T14:42:59.888Z,56.77
2019-03-15T14:45:28.707Z,56.17
2019-03-15T14:47:58.054Z,54.95
2019-03-15T14:50:29.188Z,55.05
2019-03-15T14:52:57.432Z,53.43
2019-03-15T14:55:25.637Z,53.03
2019-03-15T14:57:53.860Z,52.36
2019-03-15T15:00:22.079Z,53.23
2019-03-15T15:02:50.286Z,53.20
2019-03-15T15:05:18.552Z,53.06
2019-03-15T15:07:46.791Z,52.22
2019-03-15T15:10:16.023Z,52.18
2019-03-15T15:12:44.247Z,51.83
2019-03-15T15:15:14.558Z,52.23
2019-03-15T15:17:43.374Z,53.12
2019-03-15T15:20:12.315Z,52.95
2019-03-15T15:22:40.536Z,53.09
2019-03-15T15:25:16.082Z,54.00
2019-03-15T15:27:44.341Z,51.93
2019-03-15T15:30:14.332Z,52.99
2019-03-15T15:32:42.578Z,52.69
2019-03-15T15:35:28.478Z,52.18
2019-03-15T15:37:56.700Z,51.72
2019-03-15T15:40:24.955Z,52.17
2019-03-15T15:42:53.179Z,52.18
2019-03-15T15:45:21.820Z,52.50
2019-03-15T15:47:50.034Z,52.37
2019-03-15T15:50:18.261Z,52.14
2019-03-15T15:52:46.470Z,51.79
2019-03-15T15:55:15.737Z,51.16
2019-03-15T15:57:43.978Z,51.57
2019-03-15T16:00:16.370Z,51.60
2019-03-15T16:02:44.583Z,52.66
2019-03-15T16:05:12.804Z,52.23
2019-03-15T16:07:41.099Z,52.19
2019-03-15T16:10:12.561Z,52.57
2019-03-15T16:12:40.795Z,52.91
2019-03-15T16:15:11.343Z,52.78
2019-03-15T16:17:39.539Z,52.85
2019-03-15T16:20:09.719Z,52.52
2019-03-15T16:22:38.121Z,52.71
2019-03-15T16:25:10.576Z,53.13
2019-03-15T16:27:38.788Z,53.18
2019-03-15T16:30:10.258Z,53.39
2019-03-15T16:32:38.514Z,53.55
2019-03-15T16:35:09.359Z,54.06
2019-03-15T16:37:37.570Z,54.63
2019-03-15T16:40:08.504Z,54.96
2019-03-15T16:42:36.811Z,54.45
2019-03-15T16:45:16.415Z,54.63
2019-03-15T16:47:44.626Z,54.69
2019-03-15T16:50:13.412Z,54.04
2019-03-15T16:52:41.655Z,54.31
2019-03-15T16:55:11.378Z,54.03
2019-03-15T16:57:39.593Z,54.44
2019-03-15T17:00:14.583Z,55.05
2019-03-15T17:02:42.805Z,54.94
2019-03-15T17:05:12.294Z,55.02
2019-03-15T17:07:40.506Z,55.14
2019-03-15T17:10:16.475Z,55.18
2019-03-15T17:12:44.766Z,55.22
2019-03-15T17:15:15.164Z,55.65
2019-03-15T17:17:43.388Z,55.45
2019-03-15T17:20:12.088Z,55.35
2019-03-15T17:22:40.292Z,55.68
2019-03-15T17:25:11.113Z,55.72
2019-03-15T17:27:39.338Z,55.91
2019-03-15T17:30:12.933Z,56.24
2019-03-15T17:32:41.145Z,56.24
2019-03-15T17:35:13.916Z,56.52
2019-03-15T17:37:42.422Z,56.47
2019-03-15T17:40:12.865Z,56.51
2019-03-15T17:42:41.071Z,56.67
2019-03-15T17:45:09.629Z,56.76
2019-03-15T17:47:37.865Z,57.20
2019-03-15T17:50:09.468Z,57.28
2019-03-15T17:52:37.717Z,57.18
2019-03-15T17:55:06.610Z,56.23
2019-03-15T17:57:35.722Z,56.45
2019-03-15T18:00:09.903Z,55.84
2019-03-15T18:02:38.112Z,55.78
2019-03-15T18:05:08.062Z,55.71
2019-03-15T18:07:36.309Z,55.66
2019-03-15T18:10:06.900Z,55.07
2019-03-15T18:12:35.119Z,55.09
2019-03-15T18:15:04.003Z,55.15
2019-03-15T18:17:32.226Z,55.22
2019-03-15T18:20:00.607Z,55.53
2019-03-15T18:22:28.850Z,55.86
2019-03-15T18:24:57.084Z,55.77
2019-03-15T18:27:25.415Z,56.15
2019-03-15T18:29:53.681Z,56.32
2019-03-15T18:32:22.906Z,56.48
2019-03-15T18:34:51.112Z,56.80
2019-03-15T18:37:19.325Z,57.06
2019-03-15T18:39:47.635Z,57.02
2019-03-15T18:42:15.848Z,56.78
2019-03-15T18:44:44.051Z,56.81
2019-03-15T18:47:12.265Z,57.01
2019-03-15T18:49:40.498Z,56.87
2019-03-15T18:52:08.706Z,57.03
2019-03-15T18:54:38.107Z,56.42
2019-03-15T18:57:06.431Z,56.59
2019-03-15T18:59:39.995Z,55.93
2019-03-15T19:02:04.576Z,55.49
2019-03-15T19:04:32.775Z,54.81
2019-03-15T19:07:01.005Z,55.27
2019-03-15T19:09:29.335Z,55.79
2019-03-15T19:11:57.555Z,55.38
2019-03-15T19:14:25.770Z,55.51
2019-03-15T19:16:53.995Z,55.89
2019-03-15T19:19:23.260Z,55.82
2019-03-15T19:21:51.485Z,56.19
2019-03-15T19:24:19.694Z,56.39
2019-03-15T19:26:47.984Z,56.60
2019-03-15T19:29:16.200Z,56.04
2019-03-15T19:31:44.430Z,56.04
2019-03-15T19:34:12.661Z,56.39
2019-03-15T19:36:40.870Z,56.47
2019-03-15T19:39:09.096Z,55.58
2019-03-15T19:41:37.328Z,55.38
2019-03-15T19:44:05.744Z,55.62
2019-03-15T19:46:34.073Z,56.24
2019-03-15T19:49:02.317Z,56.43
2019-03-15T19:51:30.532Z,56.84
2019-03-15T19:53:58.750Z,56.99
2019-03-15T19:56:26.974Z,57.06
2019-03-15T19:58:55.184Z,57.03
2019-03-15T20:01:23.593Z,57.04
2019-03-15T20:03:51.799Z,57.25
2019-03-15T20:06:20.036Z,57.18
2019-03-15T20:08:48.259Z,57.57
2019-03-15T20:11:16.493Z,57.53
2019-03-15T20:13:44.700Z,57.81
2019-03-15T20:16:12.917Z,57.94
2019-03-15T20:18:41.142Z,58.06
2019-03-15T20:21:09.391Z,58.15
2019-03-15T20:23:37.602Z,58.31
2019-03-15T20:26:05.807Z,58.39
2019-03-15T20:28:35.115Z,58.42
2019-03-15T20:31:03.328Z,58.19
2019-03-15T20:33:31.538Z,58.13
2019-03-15T20:35:59.769Z,58.26
2019-03-15T20:38:27.992Z,58.51
2019-03-15T20:40:56.199Z,58.53
2019-03-15T20:43:24.405Z,58.67
2019-03-15T20:45:52.614Z,58.66
2019-03-15T20:48:20.823Z,58.79
2019-03-15T20:50:50.021Z,59.04
2019-03-15T20:53:18.220Z,58.51
2019-03-15T20:55:47.418Z,58.67
2019-03-15T20:58:15.701Z,58.99
2019-03-15T21:00:43.928Z,58.72
2019-03-15T21:03:12.143Z,58.59
2019-03-15T21:05:40.356Z,58.74
2019-03-15T21:08:08.581Z,58.50
2019-03-15T21:10:36.788Z,58.65
2019-03-15T21:13:05.003Z,58.71
2019-03-15T21:15:33.212Z,58.67
2019-03-15T21:18:01.426Z,58.75
2019-03-15T21:20:29.658Z,58.41
2019-03-15T21:22:57.877Z,58.02
2019-03-15T21:25:26.094Z,58.35
2019-03-15T21:27:55.484Z,58.19
2019-03-15T21:30:27.686Z,58.27
2019-03-15T21:32:55.872Z,58.54
2019-03-15T21:35:24.361Z,58.60
2019-03-15T21:37:52.583Z,58.74
2019-03-15T21:40:21.961Z,58.77
2019-03-15T21:42:50.176Z,58.97
2019-03-15T21:45:18.569Z,58.69
2019-03-15T21:47:46.778Z,58.45
2019-03-15T21:50:19.474Z,58.90
2019-03-15T21:52:47.648Z,59.00
2019-03-15T21:55:15.869Z,59.28
2019-03-15T21:57:44.097Z,59.36
2019-03-15T22:00:17.280Z,59.20
2019-03-15T22:02:45.490Z,59.34
2019-03-15T22:05:13.708Z,59.34
2019-03-15T22:07:41.926Z,59.01
2019-03-15T22:10:13.833Z,58.74
2019-03-15T22:12:42.115Z,58.59
2019-03-15T22:15:13.703Z,58.31
2019-03-15T22:17:42.023Z,58.41
2019-03-15T22:20:17.832Z,58.15
2019-03-15T22:22:46.037Z,58.06
2019-03-15T22:25:14.251Z,58.15
2019-03-15T22:27:42.463Z,58.42
2019-03-15T22:30:12.883Z,58.06
2019-03-15T22:32:41.113Z,58.18
2019-03-15T22:35:09.303Z,58.12
2019-03-15T22:37:37.524Z,58.33
2019-03-15T22:40:10.682Z,58.42
2019-03-15T22:42:38.902Z,58.71
2019-03-15T22:45:11.657Z,58.76
2019-03-15T22:47:39.890Z,59.06
2019-03-15T22:50:09.705Z,59.33
2019-03-15T22:52:37.964Z,59.60
2019-03-15T22:55:08.224Z,59.89
2019-03-15T22:57:36.436Z,59.88
2019-03-15T23:00:13.661Z,59.97
2019-03-15T23:02:41.911Z,60.23
2019-03-15T23:05:10.127Z,60.40
2019-03-15T23:07:38.331Z,60.29
2019-03-15T23:10:08.687Z,60.25
2019-03-15T23:12:36.942Z,60.07
2019-03-15T23:15:07.612Z,59.92
2019-03-15T23:17:36.051Z,59.88
2019-03-15T23:20:08.661Z,59.54
2019-03-15T23:22:36.870Z,59.68
2019-03-15T23:25:06.616Z,59.54
2019-03-15T23:27:34.847Z,59.60
2019-03-15T23:30:03.116Z,59.55
2019-03-15T23:32:31.334Z,59.55
2019-03-15T23:34:59.572Z,59.46
2019-03-15T23:37:27.812Z,59.24
2019-03-15T23:39:56.067Z,59.33
2019-03-15T23:42:24.282Z,59.55
2019-03-15T23:44:52.522Z,59.66
2019-03-15T23:47:20.872Z,59.55
2019-03-15T23:49:49.079Z,59.55
2019-03-15T23:52:17.330Z,59.66
2019-03-15T23:54:45.574Z,59.76
2019-03-15T23:57:13.801Z,59.85
2019-03-15T23:59:42.012Z,59.71
